createdAt,value
2018-07-20T00:01:43.284Z,16.80
2018-07-20T00:04:10.730Z,16.80
2018-07-20T00:06:38.087Z,16.80
2018-07-20T00:09:06.916Z,16.70
2018-07-20T00:11:34.571Z,16.70
2018-07-20T00:14:01.930Z,16.70
2018-07-20T00:16:29.352Z,16.60
2018-07-20T00:18:56.668Z,16.60
2018-07-20T00:21:24.142Z,16.60
2018-07-20T00:23:51.491Z,16.70
2018-07-20T00:26:18.922Z,16.80
2018-07-20T00:28:46.315Z,16.80
2018-07-20T00:31:13.748Z,16.70
2018-07-20T00:33:41.145Z,16.60
2018-07-20T00:36:08.542Z,16.60
2018-07-20T00:38:36.031Z,16.50
2018-07-20T00:41:03.441Z,16.70
2018-07-20T00:43:30.872Z,16.70
2018-07-20T00:45:58.292Z,16.70
2018-07-20T00:48:25.737Z,16.60
2018-07-20T00:50:53.186Z,16.50
2018-07-20T00:53:20.664Z,16.60
2018-07-20T00:55:48.227Z,16.40
2018-07-20T01:00:43.125Z,16.60
2018-07-20T01:03:10.554Z,16.40
2018-07-20T01:05:38.027Z,16.30
2018-07-20T01:08:05.474Z,16.30
2018-07-20T01:10:32.880Z,16.30
2018-07-20T01:13:00.320Z,16.30
2018-07-20T01:15:27.828Z,16.30
2018-07-20T01:17:55.263Z,16.20
2018-07-20T01:20:22.830Z,16.10
2018-07-20T01:22:50.308Z,16.00
2018-07-20T01:25:17.680Z,16.00
2018-07-20T01:27:45.171Z,15.90
2018-07-20T01:30:12.599Z,15.90
2018-07-20T01:32:40.031Z,15.90
2018-07-20T01:35:07.451Z,15.90
2018-07-20T01:37:34.859Z,15.90
2018-07-20T01:40:02.343Z,15.90
2018-07-20T01:42:29.816Z,15.80
2018-07-20T01:44:57.197Z,15.70
2018-07-20T01:47:24.596Z,15.80
2018-07-20T01:49:52.017Z,15.90
2018-07-20T01:52:19.323Z,15.90
2018-07-20T01:54:46.689Z,16.00
2018-07-20T01:57:14.109Z,16.00
2018-07-20T01:59:41.522Z,15.80
2018-07-20T02:02:08.967Z,15.90
2018-07-20T02:04:36.450Z,15.70
2018-07-20T02:07:03.914Z,15.60
2018-07-20T02:09:31.419Z,15.50
2018-07-20T02:11:58.785Z,15.50
2018-07-20T02:14:26.337Z,15.50
2018-07-20T02:16:53.775Z,15.30
2018-07-20T02:19:21.189Z,15.30
2018-07-20T02:21:48.569Z,15.30
2018-07-20T02:24:15.966Z,15.40
2018-07-20T02:26:43.387Z,15.30
2018-07-20T02:29:10.863Z,15.20
2018-07-20T02:31:38.359Z,15.10
2018-07-20T02:34:05.976Z,15.00
2018-07-20T02:36:33.375Z,15.10
2018-07-20T02:39:00.747Z,15.10
2018-07-20T02:41:28.163Z,15.10
2018-07-20T02:43:56.129Z,15.10
2018-07-20T02:46:23.513Z,15.10
2018-07-20T02:48:50.872Z,15.00
2018-07-20T02:51:18.228Z,14.90
2018-07-20T02:53:45.854Z,14.90
2018-07-20T02:58:40.786Z,14.80
2018-07-20T03:01:08.251Z,14.80
2018-07-20T03:03:35.669Z,14.80
2018-07-20T03:06:03.121Z,14.80
2018-07-20T03:08:30.497Z,14.70
2018-07-20T03:10:57.924Z,14.80
2018-07-20T03:13:25.251Z,14.70
2018-07-20T03:15:52.686Z,14.60
2018-07-20T03:18:20.130Z,14.60
2018-07-20T03:20:47.642Z,14.50
2018-07-20T03:23:15.109Z,14.50
2018-07-20T03:25:42.525Z,14.60
2018-07-20T03:28:09.922Z,14.60
2018-07-20T03:30:37.334Z,14.50
2018-07-20T03:33:04.721Z,14.50
2018-07-20T03:35:32.200Z,14.40
2018-07-20T03:37:59.568Z,14.40
2018-07-20T03:40:26.933Z,14.40
2018-07-20T03:42:54.292Z,14.40
2018-07-20T03:45:21.700Z,14.30
2018-07-20T03:47:49.135Z,14.30
2018-07-20T03:50:16.519Z,14.20
2018-07-20T03:52:43.879Z,14.20
2018-07-20T03:55:11.275Z,14.10
2018-07-20T03:57:38.643Z,14.20
2018-07-20T04:00:06.198Z,14.20
2018-07-20T04:02:33.870Z,14.20
2018-07-20T04:05:01.222Z,14.30
2018-07-20T04:07:28.638Z,14.30
2018-07-20T04:09:56.063Z,14.30
2018-07-20T04:12:23.437Z,14.40
2018-07-20T04:14:50.753Z,14.40
2018-07-20T04:17:18.079Z,14.50
2018-07-20T04:19:45.517Z,14.60
2018-07-20T04:22:12.885Z,14.70
2018-07-20T04:24:40.508Z,14.60
2018-07-20T04:27:07.866Z,14.70
2018-07-20T04:29:35.301Z,14.70
2018-07-20T04:32:02.809Z,14.70
2018-07-20T04:34:30.295Z,14.70
2018-07-20T04:36:57.649Z,14.80
2018-07-20T04:39:25.045Z,14.80
2018-07-20T04:41:52.417Z,14.90
2018-07-20T04:44:19.711Z,15.00
2018-07-20T04:46:47.096Z,15.00
2018-07-20T04:49:15.101Z,15.10
2018-07-20T04:51:42.465Z,15.10
2018-07-20T04:54:09.771Z,15.20
2018-07-20T04:56:37.221Z,15.30
2018-07-20T04:59:04.757Z,15.30
2018-07-20T05:01:32.170Z,15.40
2018-07-20T05:03:59.567Z,15.50
2018-07-20T05:06:27.041Z,15.50
2018-07-20T05:08:54.450Z,15.60
2018-07-20T05:11:21.796Z,15.70
2018-07-20T05:13:49.260Z,15.80
2018-07-20T05:16:17.390Z,15.90
2018-07-20T05:18:44.789Z,16.00
2018-07-20T05:21:12.285Z,16.00
2018-07-20T05:23:39.630Z,16.10
2018-07-20T05:26:07.720Z,16.30
2018-07-20T05:28:35.257Z,16.30
2018-07-20T05:31:04.355Z,16.50
2018-07-20T05:33:31.846Z,16.60
2018-07-20T05:35:59.244Z,16.80
2018-07-20T05:38:26.603Z,16.90
2018-07-20T05:40:54.018Z,17.00
2018-07-20T05:43:21.426Z,17.10
2018-07-20T05:45:48.802Z,17.20
2018-07-20T05:48:16.306Z,17.40
2018-07-20T05:50:43.758Z,17.50
2018-07-20T05:53:11.312Z,17.50
2018-07-20T05:55:38.798Z,17.70
2018-07-20T05:58:06.594Z,17.90
2018-07-20T06:00:35.206Z,17.80
2018-07-20T06:03:02.630Z,17.80
2018-07-20T06:05:30.150Z,18.00
2018-07-20T06:07:57.434Z,18.30
2018-07-20T06:10:25.158Z,18.60
2018-07-20T06:12:52.718Z,18.70
2018-07-20T06:15:20.290Z,19.00
2018-07-20T06:17:48.071Z,19.20
2018-07-20T06:22:42.862Z,19.40
2018-07-20T06:25:10.364Z,19.70
2018-07-20T06:27:37.697Z,20.00
2018-07-20T06:30:05.735Z,20.20
2018-07-20T06:32:33.202Z,20.20
2018-07-20T06:35:00.666Z,20.40
2018-07-20T06:37:28.063Z,20.60
2018-07-20T06:39:55.547Z,20.80
2018-07-20T06:42:23.176Z,21.00
2018-07-20T06:44:50.581Z,21.10
2018-07-20T06:47:18.109Z,21.40
2018-07-20T06:49:45.515Z,21.50
2018-07-20T06:52:12.946Z,21.40
2018-07-20T06:54:40.393Z,21.30
2018-07-20T06:57:07.748Z,21.30
2018-07-20T06:59:35.196Z,21.40
2018-07-20T07:02:03.453Z,21.50
2018-07-20T07:04:30.828Z,21.70
2018-07-20T07:06:58.323Z,21.70
2018-07-20T07:09:26.976Z,21.90
2018-07-20T07:11:54.389Z,22.20
2018-07-20T07:14:21.892Z,22.40
2018-07-20T07:16:50.193Z,22.40
2018-07-20T07:19:17.655Z,22.50
2018-07-20T07:21:45.124Z,22.40
2018-07-20T07:24:13.236Z,22.40
2018-07-20T07:26:40.692Z,22.50
2018-07-20T07:29:08.140Z,22.60
2018-07-20T07:31:35.744Z,22.70
2018-07-20T07:34:03.238Z,22.90
2018-07-20T07:36:30.754Z,23.20
2018-07-20T07:38:58.235Z,23.40
2018-07-20T07:41:26.380Z,23.70
2018-07-20T07:43:53.811Z,24.00
2018-07-20T07:46:21.382Z,23.90
2018-07-20T07:48:48.694Z,23.90
2018-07-20T07:51:16.290Z,24.10
2018-07-20T07:53:43.745Z,24.20
2018-07-20T07:56:11.725Z,24.30
2018-07-20T07:58:39.321Z,24.30
2018-07-20T08:01:07.045Z,24.50
2018-07-20T08:03:35.508Z,24.50
2018-07-20T08:06:02.840Z,24.50
2018-07-20T08:08:30.343Z,24.60
2018-07-20T08:10:57.748Z,24.50
2018-07-20T08:13:25.134Z,24.30
2018-07-20T08:15:52.621Z,24.60
2018-07-20T08:18:19.916Z,24.80
2018-07-20T08:23:14.686Z,25.10
2018-07-20T08:25:42.098Z,25.30
2018-07-20T08:28:09.598Z,25.40
2018-07-20T08:30:36.979Z,25.50
2018-07-20T08:33:04.546Z,25.50
2018-07-20T08:35:32.014Z,25.60
2018-07-20T08:37:59.567Z,25.80
2018-07-20T08:40:27.096Z,25.80
2018-07-20T08:42:54.467Z,25.80
2018-07-20T08:45:21.945Z,25.90
2018-07-20T08:47:49.466Z,26.10
2018-07-20T08:50:16.930Z,26.30
2018-07-20T08:52:44.296Z,26.50
2018-07-20T08:55:11.786Z,26.60
2018-07-20T08:57:39.222Z,26.40
2018-07-20T09:00:07.293Z,26.40
2018-07-20T09:02:34.667Z,26.70
2018-07-20T09:05:02.134Z,26.70
2018-07-20T09:07:29.537Z,26.90
2018-07-20T09:09:56.885Z,26.80
2018-07-20T09:12:24.272Z,27.10
2018-07-20T09:14:51.819Z,27.10
2018-07-20T09:19:46.667Z,27.50
2018-07-20T09:22:14.127Z,27.60
2018-07-20T09:24:41.487Z,27.50
2018-07-20T09:27:08.950Z,27.50
2018-07-20T09:32:03.793Z,27.80
2018-07-20T09:34:31.271Z,27.80
2018-07-20T09:36:58.574Z,27.90
2018-07-20T09:39:26.035Z,27.60
2018-07-20T09:41:53.541Z,27.80
2018-07-20T09:44:20.912Z,27.80
2018-07-20T09:46:48.384Z,28.00
2018-07-20T09:49:15.740Z,27.80
2018-07-20T09:54:10.596Z,28.10
2018-07-20T09:56:37.978Z,28.50
2018-07-20T09:59:05.337Z,28.60
2018-07-20T10:01:32.817Z,28.80
2018-07-20T10:04:00.346Z,28.40
2018-07-20T10:06:27.664Z,28.60
2018-07-20T10:08:55.123Z,28.50
2018-07-20T10:11:22.525Z,28.70
2018-07-20T10:13:49.810Z,29.00
2018-07-20T10:16:17.309Z,29.30
2018-07-20T10:18:44.796Z,29.40
2018-07-20T10:21:12.277Z,28.90
2018-07-20T10:23:40.585Z,28.70
2018-07-20T10:26:07.953Z,28.30
2018-07-20T10:28:35.360Z,28.10
2018-07-20T10:31:02.845Z,27.90
2018-07-20T10:33:30.231Z,27.80
2018-07-20T10:35:58.603Z,27.60
2018-07-20T10:38:27.038Z,27.50
2018-07-20T10:40:54.336Z,27.60
2018-07-20T10:43:21.797Z,27.60
2018-07-20T10:45:49.142Z,27.50
2018-07-20T10:48:16.540Z,27.80
2018-07-20T10:50:43.905Z,28.20
2018-07-20T10:53:11.319Z,28.30
2018-07-20T10:55:38.765Z,28.30
2018-07-20T10:58:06.146Z,28.30
2018-07-20T11:00:33.503Z,28.20
2018-07-20T11:03:00.981Z,28.20
2018-07-20T11:05:28.545Z,28.20
2018-07-20T11:07:56.010Z,28.20
2018-07-20T11:10:23.461Z,28.30
2018-07-20T11:12:51.897Z,28.30
2018-07-20T11:15:20.106Z,28.40
2018-07-20T11:17:48.441Z,28.50
2018-07-20T11:20:16.472Z,28.50
2018-07-20T11:22:43.813Z,28.70
2018-07-20T11:25:11.327Z,28.90
2018-07-20T11:27:38.974Z,29.00
2018-07-20T11:30:06.474Z,28.80
2018-07-20T11:32:34.853Z,28.50
2018-07-20T11:35:02.201Z,28.90
2018-07-20T11:37:29.670Z,29.10
2018-07-20T11:39:57.838Z,29.20
2018-07-20T11:42:25.266Z,29.10
2018-07-20T11:44:52.666Z,29.10
2018-07-20T11:47:20.121Z,29.40
2018-07-20T11:49:47.985Z,29.40
2018-07-20T11:52:15.520Z,29.50
2018-07-20T11:54:42.954Z,29.80
2018-07-20T11:57:10.406Z,29.90
2018-07-20T11:59:37.885Z,29.70
2018-07-20T12:02:05.517Z,29.30
2018-07-20T12:04:33.067Z,28.80
2018-07-20T12:07:01.064Z,29.00
2018-07-20T12:09:31.567Z,28.20
2018-07-20T12:11:58.995Z,28.70
2018-07-20T12:14:26.501Z,29.00
2018-07-20T12:16:54.008Z,29.10
2018-07-20T12:19:21.567Z,29.20
2018-07-20T12:21:48.946Z,29.30
2018-07-20T12:24:16.370Z,29.50
2018-07-20T12:26:43.810Z,29.60
2018-07-20T12:29:11.414Z,29.80
2018-07-20T12:31:38.934Z,30.10
2018-07-20T12:34:06.460Z,30.20
2018-07-20T12:36:33.919Z,30.20
2018-07-20T12:39:01.344Z,30.10
2018-07-20T12:41:28.869Z,29.80
2018-07-20T12:43:56.307Z,29.50
2018-07-20T12:46:23.694Z,29.20
2018-07-20T12:48:51.089Z,29.20
2018-07-20T12:51:18.459Z,29.10
2018-07-20T12:53:45.973Z,29.10
2018-07-20T12:56:13.393Z,29.00
2018-07-20T12:58:40.851Z,28.90
2018-07-20T13:01:08.144Z,28.80
2018-07-20T13:03:35.582Z,28.60
2018-07-20T13:06:02.982Z,28.50
2018-07-20T13:08:30.390Z,28.50
2018-07-20T13:10:57.881Z,28.50
2018-07-20T13:13:25.266Z,28.40
2018-07-20T13:15:52.667Z,28.50
2018-07-20T13:18:20.144Z,28.60
2018-07-20T13:20:47.552Z,28.60
2018-07-20T13:23:14.912Z,28.70
2018-07-20T13:25:42.471Z,28.80
2018-07-20T13:28:09.946Z,29.00
2018-07-20T13:30:37.421Z,29.40
2018-07-20T13:33:04.797Z,30.10
2018-07-20T13:35:32.259Z,30.30
2018-07-20T13:37:59.685Z,30.30
2018-07-20T13:40:27.066Z,30.10
2018-07-20T13:42:54.480Z,30.00
2018-07-20T13:45:21.931Z,29.60
2018-07-20T13:47:49.335Z,29.30
2018-07-20T13:50:16.690Z,29.40
2018-07-20T13:55:11.427Z,29.80
2018-07-20T13:57:38.867Z,29.90
2018-07-20T14:00:07.164Z,29.70
2018-07-20T14:02:34.566Z,29.70
2018-07-20T14:05:01.928Z,29.80
2018-07-20T14:07:29.286Z,30.10
2018-07-20T14:09:56.699Z,30.30
2018-07-20T14:12:24.237Z,30.80
2018-07-20T14:14:51.583Z,31.00
2018-07-20T14:17:19.041Z,31.10
2018-07-20T14:19:46.616Z,31.60
2018-07-20T14:22:13.909Z,31.70
2018-07-20T14:24:41.276Z,31.70
2018-07-20T14:27:08.614Z,31.80
2018-07-20T14:29:36.196Z,31.80
2018-07-20T14:32:03.774Z,31.70
2018-07-20T14:34:31.245Z,31.20
2018-07-20T14:36:58.538Z,31.50
2018-07-20T14:39:26.005Z,31.70
2018-07-20T14:41:53.478Z,32.00
2018-07-20T14:44:20.850Z,31.90
2018-07-20T14:46:48.416Z,32.20
2018-07-20T14:49:15.765Z,32.20
2018-07-20T14:54:10.618Z,32.10
2018-07-20T14:56:38.060Z,32.10
2018-07-20T14:59:05.502Z,31.90
2018-07-20T15:01:32.877Z,31.60
2018-07-20T15:04:00.324Z,31.70
2018-07-20T15:06:27.743Z,31.70
2018-07-20T15:08:55.262Z,31.40
2018-07-20T15:11:22.690Z,31.10
2018-07-20T15:13:49.986Z,30.90
2018-07-20T15:16:17.445Z,30.90
2018-07-20T15:18:44.935Z,31.00
2018-07-20T15:21:12.442Z,31.00
2018-07-20T15:23:39.855Z,31.00
2018-07-20T15:26:07.367Z,30.90
2018-07-20T15:28:34.663Z,30.60
2018-07-20T15:31:02.134Z,30.60
2018-07-20T15:33:29.626Z,30.70
2018-07-20T15:35:57.076Z,30.70
2018-07-20T15:38:24.442Z,30.70
2018-07-20T15:40:51.891Z,30.50
2018-07-20T15:43:19.361Z,30.40
2018-07-20T15:45:52.037Z,30.40
2018-07-20T15:48:14.137Z,30.20
2018-07-20T15:50:41.555Z,30.20
2018-07-20T15:53:37.678Z,30.30
2018-07-20T15:55:36.569Z,30.40
2018-07-20T15:58:04.503Z,30.40
2018-07-20T16:00:32.053Z,30.40
2018-07-20T16:02:59.471Z,30.00
2018-07-20T16:05:26.810Z,30.20
2018-07-20T16:07:54.145Z,30.10
2018-07-20T16:10:21.629Z,30.10
2018-07-20T16:12:49.021Z,30.00
2018-07-20T16:15:16.423Z,30.00
2018-07-20T16:17:43.913Z,29.80
2018-07-20T16:20:11.371Z,29.80
2018-07-20T16:22:38.786Z,29.70
2018-07-20T16:25:06.183Z,29.50
2018-07-20T16:27:33.598Z,29.40
2018-07-20T16:30:01.230Z,29.30
2018-07-20T16:32:28.591Z,29.20
2018-07-20T16:34:55.971Z,29.00
2018-07-20T16:37:23.378Z,29.10
2018-07-20T16:39:50.743Z,29.00
2018-07-20T16:42:18.149Z,29.00
2018-07-20T16:44:45.561Z,29.00
2018-07-20T16:47:12.956Z,28.90
2018-07-20T16:49:40.352Z,28.90
2018-07-20T16:54:35.255Z,28.80
2018-07-20T16:57:02.642Z,28.70
2018-07-20T16:59:30.105Z,28.70
2018-07-20T17:01:57.678Z,28.70
2018-07-20T17:04:25.158Z,28.60
2018-07-20T17:06:52.575Z,28.60
2018-07-20T17:09:19.919Z,28.50
2018-07-20T17:14:21.493Z,28.50
2018-07-20T17:16:48.987Z,28.40
2018-07-20T17:19:16.459Z,28.40
2018-07-20T17:21:43.865Z,28.30
2018-07-20T17:24:11.255Z,28.30
2018-07-20T17:26:38.643Z,28.30
2018-07-20T17:29:06.028Z,28.40
2018-07-20T17:31:33.585Z,28.40
2018-07-20T17:34:00.951Z,28.40
2018-07-20T17:36:28.473Z,28.40
2018-07-20T17:38:55.935Z,28.40
2018-07-20T17:43:50.752Z,28.40
2018-07-20T17:46:18.183Z,28.40
2018-07-20T17:48:45.505Z,28.30
2018-07-20T17:51:13.040Z,28.20
2018-07-20T17:53:40.399Z,28.10
2018-07-20T17:56:07.771Z,28.10
2018-07-20T17:58:35.211Z,28.00
2018-07-20T18:01:02.562Z,27.90
2018-07-20T18:03:29.902Z,27.80
2018-07-20T18:08:24.638Z,27.70
2018-07-20T18:10:52.022Z,27.60
2018-07-20T18:13:19.394Z,27.50
2018-07-20T18:15:46.856Z,27.50
2018-07-20T18:18:14.126Z,27.40
2018-07-20T18:20:41.577Z,27.40
2018-07-20T18:23:08.960Z,27.20
2018-07-20T18:25:36.451Z,27.10
2018-07-20T18:28:03.991Z,27.10
2018-07-20T18:30:31.445Z,27.00
2018-07-20T18:32:58.875Z,26.90
2018-07-20T18:35:26.521Z,26.80
2018-07-20T18:37:53.971Z,26.70
2018-07-20T18:40:21.518Z,26.70
2018-07-20T18:42:49.090Z,26.60
2018-07-20T18:45:16.596Z,26.50
2018-07-20T18:47:44.074Z,26.40
2018-07-20T18:50:11.942Z,26.30
2018-07-20T18:52:39.310Z,26.20
2018-07-20T18:55:06.947Z,26.10
2018-07-20T18:57:34.362Z,26.10
2018-07-20T19:00:01.890Z,25.90
2018-07-20T19:02:29.364Z,25.80
2018-07-20T19:04:56.853Z,25.70
2018-07-20T19:07:24.381Z,25.60
2018-07-20T19:09:51.949Z,25.50
2018-07-20T19:12:19.409Z,25.40
2018-07-20T19:14:46.783Z,25.30
2018-07-20T19:17:14.270Z,25.30
2018-07-20T19:19:41.702Z,25.20
2018-07-20T19:24:36.435Z,25.00
2018-07-20T19:27:03.849Z,25.00
2018-07-20T19:29:31.267Z,24.90
2018-07-20T19:31:58.643Z,24.90
2018-07-20T19:34:26.628Z,24.80
2018-07-20T19:36:55.753Z,24.80
2018-07-20T19:42:02.342Z,24.70
2018-07-20T19:44:29.923Z,24.60
2018-07-20T19:47:01.815Z,24.60
2018-07-20T19:49:30.420Z,24.60
2018-07-20T19:52:07.353Z,24.60
2018-07-20T19:54:34.941Z,24.60
2018-07-20T19:57:02.752Z,24.50
2018-07-20T19:59:31.153Z,24.40
2018-07-20T20:02:02.098Z,24.40
2018-07-20T20:04:30.960Z,24.40
2018-07-20T20:06:59.739Z,24.30
2018-07-20T20:09:28.221Z,24.30
2018-07-20T20:11:55.635Z,24.20
2018-07-20T20:14:23.468Z,24.20
2018-07-20T20:16:52.839Z,24.20
2018-07-20T20:19:30.451Z,24.10
2018-07-20T20:21:58.501Z,24.20
2018-07-20T20:24:26.534Z,24.10
2018-07-20T20:26:55.033Z,24.10
2018-07-20T20:29:22.910Z,24.00
2018-07-20T20:31:51.179Z,24.10
2018-07-20T20:34:19.003Z,24.10
2018-07-20T20:36:46.747Z,23.80
2018-07-20T20:41:42.306Z,23.60
2018-07-20T20:44:10.735Z,23.70
2018-07-20T20:46:39.070Z,23.70
2018-07-20T20:49:07.456Z,23.80
2018-07-20T20:51:35.392Z,23.90
2018-07-20T20:54:03.127Z,23.90
2018-07-20T20:56:31.032Z,23.90
2018-07-20T21:01:26.552Z,23.90
2018-07-20T21:03:54.153Z,24.00
2018-07-20T21:06:21.974Z,24.00
2018-07-20T21:08:51.357Z,24.00
2018-07-20T21:11:19.780Z,24.00
2018-07-20T21:13:48.162Z,24.00
2018-07-20T21:25:13.224Z,24.00
2018-07-20T21:27:40.666Z,23.90
2018-07-20T21:30:08.091Z,23.90
2018-07-20T21:32:35.435Z,23.90
2018-07-20T21:35:02.860Z,23.80
2018-07-20T21:37:30.268Z,23.80
2018-07-20T21:39:57.637Z,23.70
2018-07-20T21:42:25.086Z,23.70
2018-07-20T21:44:52.551Z,23.60
2018-07-20T21:47:19.923Z,23.60
2018-07-20T21:49:47.191Z,23.70
2018-07-20T21:52:14.624Z,23.60
2018-07-20T21:54:42.028Z,23.60
2018-07-20T21:57:09.477Z,23.50
2018-07-20T21:59:36.787Z,23.50
2018-07-20T22:02:04.235Z,23.40
2018-07-20T22:04:31.713Z,23.50
2018-07-20T22:07:00.558Z,23.50
2018-07-20T22:09:28.020Z,23.50
2018-07-20T22:11:55.481Z,23.50
2018-07-20T22:14:22.983Z,23.50
2018-07-20T22:16:51.209Z,23.50
2018-07-20T22:21:45.904Z,23.50
2018-07-20T22:24:13.366Z,23.50
2018-07-20T22:26:40.865Z,23.40
2018-07-20T22:29:08.276Z,23.40
2018-07-20T22:31:35.729Z,23.40
2018-07-20T22:34:03.143Z,23.30
2018-07-20T22:36:30.615Z,23.30
2018-07-20T22:38:57.907Z,23.30
2018-07-20T22:41:25.297Z,23.30
2018-07-20T22:43:52.734Z,23.30
2018-07-20T22:46:20.081Z,23.30
2018-07-20T22:48:47.490Z,23.30
2018-07-20T22:51:14.964Z,23.30
2018-07-20T22:53:42.387Z,23.20
2018-07-20T22:56:09.824Z,23.20
2018-07-20T22:58:37.227Z,22.90
2018-07-20T23:01:04.625Z,22.90
2018-07-20T23:03:31.988Z,22.80
2018-07-20T23:05:59.492Z,22.90
2018-07-20T23:08:26.947Z,22.80
2018-07-20T23:10:54.330Z,22.80
2018-07-20T23:13:21.770Z,22.80
2018-07-20T23:15:55.912Z,22.80
2018-07-20T23:20:50.631Z,22.80
2018-07-20T23:23:18.019Z,22.80
2018-07-20T23:25:45.411Z,22.70
2018-07-20T23:28:12.767Z,22.70
2018-07-20T23:30:40.313Z,22.60
2018-07-20T23:33:07.807Z,22.60
2018-07-20T23:35:35.216Z,22.40
2018-07-20T23:38:02.614Z,22.30
2018-07-20T23:42:57.370Z,22.20
2018-07-20T23:45:24.654Z,22.20
2018-07-20T23:47:52.092Z,22.20
2018-07-20T23:50:19.585Z,22.20
2018-07-20T23:52:47.008Z,22.10
2018-07-20T23:55:14.573Z,22.00
2018-07-20T23:57:41.986Z,22.00
